Time;durP1;ratioP1;P1;durP2;ratioP2;P2;SDS_P1;SDS_P2;PMS_P1;PMS_P2;Temp;Humidity;BMP_temperature;BMP_pressure;BME280_temperature;BME280_humidity;BME280_pressure;Samples;Min_cycle;Max_cycle;Signal;HPM_P1;HPM_P2
2023/07/15 00:00:57;;;;;;;1999.90;999.90;;;18.90;99.90;;;;;;5049655;28;20476;-72
2023/07/15 00:03:24;;;;;;;1999.90;999.90;;;18.80;99.90;;;;;;5073233;28;20411;-71
2023/07/15 00:05:51;;;;;;;1999.90;999.90;;;18.50;99.90;;;;;;5070592;28;20420;-71
2023/07/15 00:08:17;;;;;;;1999.90;999.90;;;18.90;99.90;;;;;;5061175;28;20418;-72
2023/07/15 00:10:46;;;;;;;1999.90;999.90;;;18.70;99.90;;;;;;5055286;28;20421;-72
2023/07/15 00:13:16;;;;;;;1999.90;999.90;;;18.80;99.90;;;;;;5072629;28;20789;-72
2023/07/15 00:15:45;;;;;;;1999.90;999.90;;;18.80;99.90;;;;;;5072893;28;20838;-75
2023/07/15 00:18:14;;;;;;;1999.90;999.90;;;18.90;99.90;;;;;;5056802;28;21051;-72
2023/07/15 00:20:41;;;;;;;1999.90;999.90;;;19.10;99.90;;;;;;5061191;28;20421;-72
2023/07/15 00:23:17;;;;;;;1999.90;999.90;;;19.20;99.90;;;;;;5057656;28;20811;-73
2023/07/15 00:25:44;;;;;;;1999.90;999.90;;;19.30;99.90;;;;;;5072471;28;20419;-73
2023/07/15 00:28:11;;;;;;;1999.90;999.90;;;19.40;99.90;;;;;;5059905;28;20445;-72
2023/07/15 00:30:39;;;;;;;1999.90;999.90;;;19.40;99.90;;;;;;5060943;28;20448;-72
2023/07/15 00:33:10;;;;;;;1999.90;999.90;;;19.40;99.90;;;;;;5057836;28;20427;-70
2023/07/15 00:35:37;;;;;;;1999.90;999.90;;;19.60;99.90;;;;;;5072711;28;20437;-72
2023/07/15 00:38:03;;;;;;;1999.90;999.90;;;19.60;99.90;;;;;;5057131;28;20524;-71
2023/07/15 00:40:37;;;;;;;1999.90;999.90;;;19.60;99.90;;;;;;5055574;28;20478;-70
2023/07/15 00:43:41;;;;;;;1999.90;999.90;;;19.70;99.90;;;;;;5072183;28;20415;-72
2023/07/15 00:46:31;;;;;;;1999.90;999.90;;;19.70;99.90;;;;;;5068671;28;20436;-72
2023/07/15 00:49:02;;;;;;;1999.90;999.90;;;19.50;99.90;;;;;;5053059;28;20472;-71
2023/07/15 00:51:31;;;;;;;1999.90;999.90;;;19.40;99.90;;;;;;5059292;28;20432;-70
2023/07/15 00:53:59;;;;;;;1999.90;999.90;;;19.30;99.90;;;;;;5059658;28;20796;-71
2023/07/15 00:56:27;;;;;;;1999.90;999.90;;;19.30;99.90;;;;;;5053906;28;20794;-71
2023/07/15 00:58:54;;;;;;;1999.90;999.90;;;19.20;99.90;;;;;;5051913;28;20417;-71
2023/07/15 01:01:22;;;;;;;1999.90;999.90;;;19.40;99.90;;;;;;5067588;28;20498;-71
2023/07/15 01:03:49;;;;;;;1999.90;999.90;;;19.60;99.90;;;;;;5072000;28;20424;-71
2023/07/15 01:06:16;;;;;;;1999.90;999.90;;;19.80;99.20;;;;;;5067256;28;20533;-74
2023/07/15 01:08:43;;;;;;;1999.90;999.90;;;20.00;98.10;;;;;;5059904;28;20428;-72
2023/07/15 01:11:10;;;;;;;1999.90;999.90;;;20.20;98.10;;;;;;5057659;28;20420;-72
2023/07/15 01:13:37;;;;;;;1999.90;999.90;;;20.10;98.80;;;;;;5054925;28;20518;-71
2023/07/15 01:16:04;;;;;;;1999.90;999.90;;;19.90;99.00;;;;;;5069185;28;20774;-71
2023/07/15 01:18:32;;;;;;;1999.90;999.90;;;19.80;99.40;;;;;;5059592;28;20460;-72
2023/07/15 01:20:59;;;;;;;1999.90;999.90;;;19.70;99.50;;;;;;5056124;28;20423;-71
2023/07/15 01:23:28;;;;;;;1999.90;999.90;;;19.60;99.80;;;;;;5071465;28;20443;-72
2023/07/15 01:25:55;;;;;;;1999.90;999.90;;;19.60;99.90;;;;;;5071426;28;20925;-72
2023/07/15 01:28:21;;;;;;;1999.90;999.90;;;19.60;99.90;;;;;;5058448;28;20468;-73
2023/07/15 01:30:48;;;;;;;1999.90;999.90;;;19.50;99.90;;;;;;5070859;28;20434;-72
2023/07/15 01:33:16;;;;;;;1999.90;999.90;;;19.40;99.90;;;;;;5064103;28;20802;-71
2023/07/15 01:35:48;;;;;;;1999.90;999.90;;;19.30;99.90;;;;;;5061583;28;20465;-72
2023/07/15 01:38:14;;;;;;;1999.90;999.90;;;19.30;99.90;;;;;;5051146;28;20512;-71
2023/07/15 01:40:43;;;;;;;1999.90;999.90;;;19.30;99.90;;;;;;5061339;28;20827;-71
2023/07/15 01:43:10;;;;;;;1999.90;999.90;;;19.20;99.90;;;;;;5065362;28;20664;-71
2023/07/15 01:45:36;;;;;;;1999.90;999.90;;;19.10;99.90;;;;;;5051402;28;20910;-72
2023/07/15 01:48:04;;;;;;;1999.90;999.90;;;19.20;99.90;;;;;;5047690;28;20918;-71
2023/07/15 01:50:31;;;;;;;1999.90;999.90;;;19.20;99.90;;;;;;5051839;28;20422;-71
2023/07/15 01:52:58;;;;;;;1999.90;999.90;;;19.30;99.90;;;;;;5049581;28;20425;-72
2023/07/15 01:55:25;;;;;;;1999.90;999.90;;;19.40;99.90;;;;;;5051540;28;20421;-73
2023/07/15 01:57:53;;;;;;;1999.90;999.90;;;19.50;99.70;;;;;;5049686;28;21001;-71
2023/07/15 02:00:20;;;;;;;1999.90;999.90;;;19.60;99.50;;;;;;5051371;28;20425;-71
2023/07/15 02:02:47;;;;;;;1999.90;999.90;;;19.70;99.20;;;;;;5051476;28;20424;-72
2023/07/15 02:05:14;;;;;;;1999.90;999.90;;;19.70;99.30;;;;;;5051031;28;20417;-71
2023/07/15 02:07:41;;;;;;;1999.90;999.90;;;19.60;99.50;;;;;;5049313;28;20981;-71
2023/07/15 02:10:08;;;;;;;1999.90;999.90;;;19.60;99.60;;;;;;5051225;28;20601;-71
2023/07/15 02:12:35;;;;;;;1999.90;999.90;;;19.50;99.70;;;;;;5050971;28;20425;-70
2023/07/15 02:15:04;;;;;;;1999.90;999.90;;;19.50;99.90;;;;;;5050962;28;20871;-71
2023/07/15 02:17:30;;;;;;;1999.90;999.90;;;19.30;99.90;;;;;;5049138;28;20882;-72
2023/07/15 02:19:59;;;;;;;1999.90;999.90;;;19.30;99.90;;;;;;5050714;28;20417;-72
2023/07/15 02:22:26;;;;;;;1999.90;999.90;;;19.20;99.90;;;;;;5050601;28;20483;-71
2023/07/15 02:24:53;;;;;;;1999.90;999.90;;;19.20;99.90;;;;;;5051009;28;20516;-71
2023/07/15 02:27:20;;;;;;;1999.90;999.90;;;19.10;99.90;;;;;;5048911;28;20440;-72
2023/07/15 02:29:46;;;;;;;1999.90;999.90;;;19.00;99.90;;;;;;5050546;28;20417;-72
2023/07/15 02:32:34;;;;;;;1999.90;999.90;;;19.00;99.90;;;;;;5050341;28;20423;-74
2023/07/15 02:35:00;;;;;;;1999.90;999.90;;;19.20;99.90;;;;;;5050223;28;21093;-72
2023/07/15 02:37:27;;;;;;;1999.90;999.90;;;19.10;99.90;;;;;;5048769;28;20444;-72
2023/07/15 02:39:53;;;;;;;1999.90;999.90;;;19.10;99.90;;;;;;5042117;28;20420;-72
2023/07/15 02:42:20;;;;;;;1999.90;999.90;;;19.10;99.90;;;;;;5050292;28;20428;-72
2023/07/15 02:44:47;;;;;;;1999.90;999.90;;;19.00;99.90;;;;;;5050516;28;20421;-72
2023/07/15 02:47:15;;;;;;;1999.90;999.90;;;19.00;99.90;;;;;;5048944;28;20437;-70
2023/07/15 02:49:42;;;;;;;1999.90;999.90;;;19.40;99.90;;;;;;5050108;28;20841;-72
2023/07/15 02:52:08;;;;;;;1999.90;999.90;;;18.90;99.90;;;;;;5050366;28;20421;-72
2023/07/15 02:54:35;;;;;;;1999.90;999.90;;;18.90;99.90;;;;;;5049953;28;20524;-72
2023/07/15 02:57:02;;;;;;;1999.90;999.90;;;18.80;99.90;;;;;;5048518;28;20433;-72
2023/07/15 02:59:29;;;;;;;1999.90;999.90;;;18.80;99.90;;;;;;5049949;28;20466;-70
2023/07/15 03:01:55;;;;;;;1999.90;999.90;;;18.90;99.90;;;;;;5050096;28;20475;-72
2023/07/15 03:04:23;;;;;;;1999.90;999.90;;;19.10;99.90;;;;;;5050166;28;20471;-72
2023/07/15 03:06:52;;;;;;;1999.90;999.90;;;19.30;99.90;;;;;;5048538;28;20478;-72
2023/07/15 03:09:19;;;;;;;1999.90;999.90;;;18.90;99.90;;;;;;5050139;28;20519;-73
2023/07/15 03:11:46;;;;;;;1999.90;999.90;;;18.90;99.90;;;;;;5049919;28;20933;-72
2023/07/15 03:14:13;;;;;;;1999.90;999.90;;;18.50;99.90;;;;;;5049838;28;20456;-72
2023/07/15 03:16:40;;;;;;;1999.90;999.90;;;18.50;99.90;;;;;;5048778;28;20425;-71
2023/07/15 03:19:07;;;;;;;1999.90;999.90;;;18.30;99.90;;;;;;5050069;28;20428;-72
2023/07/15 03:21:38;;;;;;;1999.90;999.90;;;18.60;99.90;;;;;;5050107;28;20414;-72
2023/07/15 03:24:05;;;;;;;1999.90;999.90;;;17.70;99.90;;;;;;5050155;28;20604;-71
2023/07/15 03:26:32;;;;;;;1999.90;999.90;;;17.50;99.90;;;;;;5049124;28;20417;-71
2023/07/15 03:28:59;;;;;;;1999.90;999.90;;;17.60;99.90;;;;;;5049425;28;20413;-72
2023/07/15 03:31:26;;;;;;;1999.90;999.90;;;17.50;99.90;;;;;;5050055;28;20417;-71
2023/07/15 03:33:53;;;;;;;1999.90;999.90;;;17.50;99.90;;;;;;5050011;28;20429;-72
2023/07/15 03:36:20;;;;;;;1999.90;999.90;;;17.70;99.90;;;;;;5049943;28;20421;-73
2023/07/15 03:38:48;;;;;;;1999.90;999.90;;;17.70;99.90;;;;;;5048685;28;20516;-71
2023/07/15 03:41:15;;;;;;;1999.90;999.90;;;17.70;99.90;;;;;;5050107;28;20487;-73
2023/07/15 03:43:42;;;;;;;1999.90;999.90;;;17.70;99.90;;;;;;5049642;28;20511;-71
2023/07/15 03:46:09;;;;;;;1999.90;999.90;;;17.90;99.90;;;;;;5049930;28;20421;-69
2023/07/15 03:48:35;;;;;;;1999.90;999.90;;;17.70;99.90;;;;;;5048215;28;21020;-70
2023/07/15 03:51:02;;;;;;;1999.90;999.90;;;17.80;99.90;;;;;;5050090;28;20421;-72
2023/07/15 03:53:29;;;;;;;1999.90;999.90;;;17.60;99.90;;;;;;5049926;28;20416;-71
2023/07/15 03:55:57;;;;;;;1999.90;999.90;;;17.60;99.90;;;;;;5050090;28;20421;-70
2023/07/15 03:58:24;;;;;;;1999.90;999.90;;;17.60;99.90;;;;;;5052220;28;20435;-72
2023/07/15 04:00:50;;;;;;;1999.90;999.90;;;17.60;99.90;;;;;;5053414;28;20424;-71
2023/07/15 04:03:18;;;;;;;1999.90;999.90;;;17.60;99.90;;;;;;5053373;28;20437;-72
2023/07/15 04:05:46;;;;;;;1999.90;999.90;;;17.60;99.90;;;;;;5053598;28;20420;-71
2023/07/15 04:08:13;;;;;;;1999.90;999.90;;;17.60;99.90;;;;;;5052026;28;20520;-71
2023/07/15 04:10:40;;;;;;;1999.90;999.90;;;17.80;99.90;;;;;;5053184;28;20415;-71
2023/07/15 04:13:08;;;;;;;1999.90;999.90;;;17.80;99.90;;;;;;5078089;22;20677;-67
2023/07/15 04:15:34;;;;;;;1999.90;999.90;;;17.90;99.90;;;;;;5072623;28;20411;-69
2023/07/15 04:18:01;;;;;;;1999.90;999.90;;;18.00;99.90;;;;;;5071189;28;20481;-72
2023/07/15 04:20:28;;;;;;;1999.90;999.90;;;18.10;99.90;;;;;;5072579;28;20892;-69
2023/07/15 04:22:54;;;;;;;1999.90;999.90;;;18.20;99.90;;;;;;5072593;28;20419;-71
2023/07/15 04:25:21;;;;;;;1999.90;999.90;;;18.20;99.90;;;;;;5072701;28;20419;-71
2023/07/15 04:27:48;;;;;;;1999.90;999.90;;;18.40;99.90;;;;;;5070415;28;20476;-71
2023/07/15 04:30:16;;;;;;;1999.90;999.90;;;18.40;99.90;;;;;;5064273;28;20416;-71
2023/07/15 04:32:43;;;;;;;1999.90;999.90;;;18.60;99.90;;;;;;5072261;28;20921;-70
2023/07/15 04:35:09;;;;;;;1999.90;999.90;;;18.60;99.90;;;;;;5072658;28;20887;-69
2023/07/15 04:37:37;;;;;;;1999.90;999.90;;;18.50;99.90;;;;;;5070946;28;20427;-69
2023/07/15 04:40:07;;;;;;;1999.90;999.90;;;18.90;99.90;;;;;;5072176;28;20411;-70
2023/07/15 04:42:33;;;;;;;1999.90;999.90;;;19.40;99.90;;;;;;5072474;28;20506;-68
2023/07/15 04:45:00;;;;;;;1999.90;999.90;;;20.00;99.90;;;;;;5072097;28;20435;-70
2023/07/15 04:47:28;;;;;;;1999.90;999.90;;;20.40;99.90;;;;;;5070331;28;21114;-69
2023/07/15 04:49:54;;;;;;;1999.90;999.90;;;20.70;99.90;;;;;;5064088;28;20416;-68
2023/07/15 04:52:21;;;;;;;1999.90;999.90;;;20.70;99.90;;;;;;5071509;28;20557;-72
2023/07/15 04:54:48;;;;;;;1999.90;999.90;;;20.70;99.90;;;;;;5071751;28;20897;-70
2023/07/15 04:57:16;;;;;;;1999.90;999.90;;;21.00;99.90;;;;;;5070226;28;20511;-69
2023/07/15 04:59:45;;;;;;;1999.90;999.90;;;21.40;99.90;;;;;;5070645;28;20420;-69
2023/07/15 05:02:12;;;;;;;1999.90;999.90;;;21.70;99.90;;;;;;5071936;28;20419;-74
2023/07/15 05:04:40;;;;;;;1999.90;999.90;;;21.90;99.90;;;;;;5071704;28;20419;-68
2023/07/15 05:07:06;;;;;;;1999.90;999.90;;;22.20;99.90;;;;;;5070285;28;20443;-70
2023/07/15 05:09:33;;;;;;;1999.90;999.90;;;22.40;99.90;;;;;;5071741;28;20415;-67
2023/07/15 05:12:00;;;;;;;1999.90;999.90;;;22.50;99.90;;;;;;5071892;28;20431;-68
2023/07/15 05:14:27;;;;;;;1999.90;999.90;;;22.50;99.90;;;;;;5071488;28;20423;-68
2023/07/15 05:16:53;;;;;;;1999.90;999.90;;;22.50;99.90;;;;;;5070600;28;20412;-69
2023/07/15 05:19:21;;;;;;;1999.90;999.90;;;22.50;99.90;;;;;;5062490;28;20803;-68
2023/07/15 05:21:49;;;;;;;1999.90;999.90;;;22.60;99.90;;;;;;5071203;28;20450;-69
2023/07/15 05:24:16;;;;;;;1999.90;999.90;;;22.70;99.90;;;;;;5071291;28;20428;-71
2023/07/15 05:26:43;;;;;;;1999.90;999.90;;;23.10;99.40;;;;;;5071451;28;20967;-71
2023/07/15 05:29:09;;;;;;;1999.90;999.90;;;23.70;98.40;;;;;;5070101;28;20431;-70
2023/07/15 05:31:36;;;;;;;1999.90;999.90;;;23.40;99.40;;;;;;5071360;28;20411;-71
2023/07/15 05:34:03;;;;;;;1999.90;999.90;;;23.30;98.00;;;;;;5071316;28;20411;-71
2023/07/15 05:36:29;;;;;;;1999.90;999.90;;;23.50;97.30;;;;;;5071235;28;20411;-70
2023/07/15 05:38:57;;;;;;;1999.90;999.90;;;23.90;96.20;;;;;;5061910;28;20432;-70
2023/07/15 05:41:24;;;;;;;1999.90;999.90;;;24.10;96.30;;;;;;5071260;28;20424;-72
2023/07/15 05:43:51;;;;;;;1999.90;999.90;;;24.30;95.30;;;;;;5071089;28;20419;-70
2023/07/15 05:46:17;;;;;;;1999.90;999.90;;;24.50;94.90;;;;;;5071033;28;20477;-71
2023/07/15 05:48:44;;;;;;;1999.90;999.90;;;24.90;94.00;;;;;;5067984;28;20431;-69
2023/07/15 05:51:11;;;;;;;1999.90;999.90;;;25.30;93.70;;;;;;5071072;28;20430;-71
2023/07/15 05:53:38;;;;;;;1999.90;999.90;;;25.50;93.10;;;;;;5071057;28;20419;-71
2023/07/15 05:56:06;;;;;;;1999.90;999.90;;;25.60;93.20;;;;;;5071170;28;20404;-70
2023/07/15 05:58:32;;;;;;;1999.90;999.90;;;25.90;92.80;;;;;;5069839;28;20434;-72
2023/07/15 06:00:59;;;;;;;1999.90;999.90;;;26.20;91.80;;;;;;5070787;28;20423;-71
2023/07/15 06:03:26;;;;;;;1999.90;999.90;;;26.50;91.40;;;;;;5070520;28;20408;-70
2023/07/15 06:05:53;;;;;;;1999.90;999.90;;;26.70;90.90;;;;;;5070965;28;20417;-70
2023/07/15 06:08:19;;;;;;;1999.90;999.90;;;26.70;90.90;;;;;;5069159;28;20438;-72
2023/07/15 06:10:46;;;;;;;1999.90;999.90;;;27.00;90.60;;;;;;5070476;28;20407;-72
2023/07/15 06:13:14;;;;;;;1999.90;999.90;;;27.20;90.10;;;;;;5070482;28;20502;-72
2023/07/15 06:15:42;;;;;;;1999.90;999.90;;;27.50;87.70;;;;;;5070612;28;20419;-72
2023/07/15 06:18:09;;;;;;;1999.90;999.90;;;27.90;86.20;;;;;;5068174;28;20836;-71
2023/07/15 06:20:40;;;;;;;1999.90;999.90;;;27.90;86.20;;;;;;5070131;28;20422;-72
2023/07/15 06:23:06;;;;;;;1999.90;999.90;;;28.10;85.80;;;;;;5070598;28;20419;-72
2023/07/15 06:25:33;;;;;;;1999.90;999.90;;;27.90;84.20;;;;;;5070478;28;20423;-71
2023/07/15 06:28:00;;;;;;;1999.90;999.90;;;28.20;85.30;;;;;;5068914;28;20523;-72
2023/07/15 06:30:28;;;;;;;1999.90;999.90;;;27.90;84.00;;;;;;5070149;28;20415;-71
2023/07/15 06:32:54;;;;;;;1999.90;999.90;;;28.20;85.00;;;;;;5070515;28;20762;-71
2023/07/15 06:35:21;;;;;;;1999.90;999.90;;;28.20;82.80;;;;;;5070598;28;21041;-71
2023/07/15 06:37:49;;;;;;;1999.90;999.90;;;28.10;82.60;;;;;;5068830;28;20470;-71
2023/07/15 06:40:16;;;;;;;1999.90;999.90;;;28.00;82.00;;;;;;5070105;28;20962;-71
2023/07/15 06:42:44;;;;;;;1999.90;999.90;;;28.10;82.70;;;;;;5070163;28;20498;-71
2023/07/15 06:45:11;;;;;;;1999.90;999.90;;;28.40;81.70;;;;;;5069978;28;20432;-71
2023/07/15 06:47:40;;;;;;;1999.90;999.90;;;28.40;81.60;;;;;;5068329;28;20435;-71
2023/07/15 06:50:08;;;;;;;1999.90;999.90;;;28.60;80.30;;;;;;5070033;28;20424;-71
2023/07/15 06:52:35;;;;;;;1999.90;999.90;;;28.90;79.60;;;;;;5070193;28;20441;-70
2023/07/15 06:55:01;;;;;;;1999.90;999.90;;;29.30;79.30;;;;;;5070059;28;20888;-69
2023/07/15 06:57:28;;;;;;;1999.90;999.90;;;29.50;78.10;;;;;;5067257;28;20931;-70
2023/07/15 06:59:55;;;;;;;1999.90;999.90;;;29.90;77.60;;;;;;5066288;28;20872;-71
2023/07/15 07:02:21;;;;;;;1999.90;999.90;;;29.90;77.30;;;;;;5066792;28;20438;-69
2023/07/15 07:04:49;;;;;;;1999.90;999.90;;;30.40;77.00;;;;;;5067785;28;20423;-69
2023/07/15 07:07:17;;;;;;;1999.90;999.90;;;31.00;75.80;;;;;;5067135;28;20427;-71
2023/07/15 07:09:44;;;;;;;1999.90;999.90;;;31.20;73.50;;;;;;5066696;28;20801;-71
2023/07/15 07:12:11;;;;;;;1999.90;999.90;;;31.00;71.10;;;;;;5066869;28;20439;-70
2023/07/15 07:14:37;;;;;;;1999.90;999.90;;;31.30;73.80;;;;;;5065008;28;20848;-71
2023/07/15 07:17:04;;;;;;;1999.90;999.90;;;31.50;71.50;;;;;;5064730;28;20490;-71
2023/07/15 07:19:31;;;;;;;1999.90;999.90;;;31.80;70.80;;;;;;5064715;28;20459;-70
2023/07/15 07:21:59;;;;;;;1999.90;999.90;;;31.40;69.50;;;;;;5068322;28;20489;-71
2023/07/15 07:24:26;;;;;;;1999.90;999.90;;;31.50;67.90;;;;;;5068576;28;20430;-72
2023/07/15 07:26:52;;;;;;;1999.90;999.90;;;31.40;67.70;;;;;;5067976;28;20436;-71
2023/07/15 07:29:20;;;;;;;1999.90;999.90;;;31.60;68.60;;;;;;5065008;28;20431;-73
2023/07/15 07:31:47;;;;;;;1999.90;999.90;;;31.80;66.10;;;;;;5067316;28;20423;-70
2023/07/15 07:34:13;;;;;;;1999.90;999.90;;;31.90;66.40;;;;;;5068510;28;20425;-71
2023/07/15 07:36:40;;;;;;;1999.90;999.90;;;31.90;64.00;;;;;;5053195;28;20846;-70
2023/07/15 07:39:08;;;;;;;1999.90;999.90;;;31.80;64.60;;;;;;5068373;28;20431;-70
2023/07/15 07:41:35;;;;;;;1999.90;999.90;;;32.00;65.20;;;;;;5073210;28;20414;-69
2023/07/15 07:44:01;;;;;;;1999.90;999.90;;;31.70;66.40;;;;;;5064890;28;20443;-71
2023/07/15 07:46:28;;;;;;;1999.90;999.90;;;32.00;67.80;;;;;;5071042;28;20477;-70
2023/07/15 07:48:55;;;;;;;1999.90;999.90;;;31.70;67.70;;;;;;5071009;28;20427;-69
2023/07/15 07:51:21;;;;;;;1999.90;999.90;;;31.10;70.90;;;;;;5070927;28;20855;-72
2023/07/15 07:53:48;;;;;;;1999.90;999.90;;;31.30;69.90;;;;;;5071778;28;20442;-70
2023/07/15 07:56:16;;;;;;;1999.90;999.90;;;31.20;67.00;;;;;;5070067;28;20431;-72
2023/07/15 07:58:43;;;;;;;1999.90;999.90;;;31.40;68.10;;;;;;5071819;28;20465;-72
2023/07/15 08:01:10;;;;;;;1999.90;999.90;;;31.70;67.30;;;;;;5071805;28;20858;-69
2023/07/15 08:03:37;;;;;;;1999.90;999.90;;;31.80;68.90;;;;;;5071734;28;20431;-70
2023/07/15 08:06:05;;;;;;;1999.90;999.90;;;32.10;65.40;;;;;;5071925;28;20431;-69
2023/07/15 08:08:31;;;;;;;1999.90;999.90;;;32.60;65.60;;;;;;5072399;28;20503;-71
2023/07/15 08:10:58;;;;;;;1999.90;999.90;;;32.90;65.90;;;;;;5062849;28;20433;-69
2023/07/15 08:13:26;;;;;;;1999.90;999.90;;;32.90;64.60;;;;;;5072544;28;20509;-71
2023/07/15 08:15:53;;;;;;;1999.90;999.90;;;33.00;63.60;;;;;;5072065;28;20431;-72
2023/07/15 08:18:20;;;;;;;1999.90;999.90;;;33.20;65.20;;;;;;5072312;28;20416;-70
2023/07/15 08:20:48;;;;;;;1999.90;999.90;;;33.20;63.10;;;;;;5072627;28;20416;-70
2023/07/15 08:23:15;;;;;;;1999.90;999.90;;;33.20;64.00;;;;;;5072480;28;20418;-71
2023/07/15 08:25:41;;;;;;;1999.90;999.90;;;33.60;62.50;;;;;;5070914;28;20466;-70
2023/07/15 08:28:08;;;;;;;1999.90;999.90;;;33.60;62.90;;;;;;5071297;28;20522;-70
2023/07/15 08:30:36;;;;;;;1999.90;999.90;;;33.60;60.30;;;;;;5070911;28;20470;-71
2023/07/15 08:33:03;;;;;;;1999.90;999.90;;;33.60;61.10;;;;;;5070732;28;20504;-72
2023/07/15 08:35:30;;;;;;;1999.90;999.90;;;33.70;60.40;;;;;;5066079;28;20908;-71
2023/07/15 08:37:57;;;;;;;1999.90;999.90;;;33.80;60.70;;;;;;5071663;28;20823;-71
2023/07/15 08:40:25;;;;;;;1999.90;999.90;;;33.90;61.40;;;;;;5072528;28;20481;-69
2023/07/15 08:42:52;;;;;;;1999.90;999.90;;;33.70;58.30;;;;;;5072111;28;20415;-70
2023/07/15 08:45:19;;;;;;;1999.90;999.90;;;33.70;59.50;;;;;;5072339;28;20431;-71
2023/07/15 08:47:48;;;;;;;1999.90;999.90;;;33.70;58.40;;;;;;5060668;28;20440;-71
2023/07/15 08:50:17;;;;;;;1999.90;999.90;;;33.60;59.60;;;;;;5063972;28;20419;-71
2023/07/15 08:52:45;;;;;;;1999.90;999.90;;;33.40;60.90;;;;;;5072194;28;20426;-69
2023/07/15 08:55:12;;;;;;;1999.90;999.90;;;33.50;60.30;;;;;;5066235;28;20935;-71
2023/07/15 08:57:40;;;;;;;1999.90;999.90;;;33.80;59.60;;;;;;5070169;28;20431;-68
2023/07/15 09:00:10;;;;;;;1999.90;999.90;;;34.10;60.50;;;;;;5069307;28;20428;-71
2023/07/15 09:02:37;;;;;;;1999.90;999.90;;;34.40;57.50;;;;;;5070618;28;20432;-70
2023/07/15 09:05:07;;;;;;;1999.90;999.90;;;34.50;56.20;;;;;;5070415;28;20428;-71
2023/07/15 09:07:43;;;;;;;1999.90;999.90;;;34.40;56.50;;;;;;5070535;28;20483;-70
2023/07/15 09:10:13;;;;;;;1999.90;999.90;;;33.90;58.00;;;;;;5069131;28;20427;-69
2023/07/15 09:12:44;;;;;;;1999.90;999.90;;;34.30;58.40;;;;;;5069754;28;20489;-69
2023/07/15 09:15:12;;;;;;;1999.90;999.90;;;34.10;58.80;;;;;;5063136;28;20435;-70
2023/07/15 09:17:39;;;;;;;1999.90;999.90;;;34.10;57.40;;;;;;5070467;28;20459;-70
2023/07/15 09:20:19;;;;;;;1999.90;999.90;;;34.40;59.50;;;;;;5068641;28;20428;-70
2023/07/15 09:22:46;;;;;;;1999.90;999.90;;;34.90;60.10;;;;;;5069749;28;20514;-71
2023/07/15 09:25:13;;;;;;;1999.90;999.90;;;34.50;57.80;;;;;;5070214;28;20511;-70
2023/07/15 09:27:43;;;;;;;1999.90;999.90;;;34.30;59.00;;;;;;5068108;28;20519;-71
2023/07/15 09:30:10;;;;;;;1999.90;999.90;;;34.50;57.70;;;;;;5069448;28;20445;-71
2023/07/15 09:32:37;;;;;;;1999.90;999.90;;;34.60;57.10;;;;;;5070035;28;21119;-71
2023/07/15 09:35:05;;;;;;;1999.90;999.90;;;34.30;58.10;;;;;;5069270;28;20488;-69
2023/07/15 09:37:34;;;;;;;1999.90;999.90;;;34.00;57.40;;;;;;5066880;28;21000;-70
2023/07/15 09:40:05;;;;;;;1999.90;999.90;;;33.70;57.70;;;;;;5068382;28;20489;-69
2023/07/15 09:42:49;;;;;;;1999.90;999.90;;;34.00;57.80;;;;;;5069386;28;20428;-71
2023/07/15 09:45:32;;;;;;;1999.90;999.90;;;33.50;57.40;;;;;;5064982;28;20920;-70
2023/07/15 09:47:59;;;;;;;1999.90;999.90;;;33.30;59.10;;;;;;5067238;28;20455;-70
2023/07/15 09:50:26;;;;;;;1999.90;999.90;;;33.60;60.00;;;;;;5068336;28;20974;-67
2023/07/15 09:52:56;;;;;;;1999.90;999.90;;;33.60;59.30;;;;;;5068735;28;20435;-71
2023/07/15 09:55:24;;;;;;;1999.90;999.90;;;33.20;59.20;;;;;;5068403;28;20435;-70
2023/07/15 09:57:54;;;;;;;1999.90;999.90;;;32.80;58.90;;;;;;5069353;28;20411;-71
2023/07/15 10:00:23;;;;;;;1999.90;999.90;;;32.50;59.60;;;;;;5070117;28;20431;-72
2023/07/15 10:02:56;;;;;;;1999.90;999.90;;;32.40;62.00;;;;;;5070579;28;20416;-71
2023/07/15 10:05:24;;;;;;;1999.90;999.90;;;32.80;64.70;;;;;;5070827;28;20553;-70
2023/07/15 10:07:54;;;;;;;1999.90;999.90;;;33.00;62.40;;;;;;5070331;28;20762;-71
2023/07/15 10:10:21;;;;;;;1999.90;999.90;;;33.10;60.30;;;;;;5068696;28;20431;-71
2023/07/15 10:12:49;;;;;;;1999.90;999.90;;;33.20;60.90;;;;;;5070229;28;20426;-71
2023/07/15 10:15:17;;;;;;;1999.90;999.90;;;33.00;61.10;;;;;;5071228;28;20415;-71
2023/07/15 10:17:46;;;;;;;1999.90;999.90;;;33.00;61.70;;;;;;5070208;28;20419;-71
2023/07/15 10:20:13;;;;;;;1999.90;999.90;;;32.80;62.20;;;;;;5069721;28;20431;-71
2023/07/15 10:22:42;;;;;;;1999.90;999.90;;;32.70;62.00;;;;;;5062284;28;20842;-68
2023/07/15 10:25:12;;;;;;;1999.90;999.90;;;32.70;62.20;;;;;;5070398;28;20455;-72
2023/07/15 10:27:39;;;;;;;1999.90;999.90;;;32.20;61.70;;;;;;5070132;28;20420;-71
2023/07/15 10:30:18;;;;;;;1999.90;999.90;;;32.30;63.40;;;;;;5069338;28;20438;-70
2023/07/15 10:33:12;;;;;;;1999.90;999.90;;;32.10;64.30;;;;;;5070325;28;20465;-71
2023/07/15 10:35:53;;;;;;;1999.90;999.90;;;32.30;64.30;;;;;;5050461;28;20516;-70
2023/07/15 10:38:27;;;;;;;1999.90;999.90;;;31.80;63.90;;;;;;5049924;28;20421;-72
2023/07/15 10:40:59;;;;;;;1999.90;999.90;;;31.70;64.90;;;;;;5059436;28;20438;-71
2023/07/15 10:43:38;;;;;;;1999.90;999.90;;;31.40;66.00;;;;;;5068914;28;20416;-71
2023/07/15 10:46:06;;;;;;;1999.90;999.90;;;31.10;66.10;;;;;;5066231;28;20424;-71
2023/07/15 10:48:34;;;;;;;1999.90;999.90;;;30.70;67.00;;;;;;5069847;28;20419;-68
2023/07/15 10:51:03;;;;;;;1999.90;999.90;;;30.40;67.70;;;;;;5070112;28;20411;-71
2023/07/15 10:53:30;;;;;;;1999.90;999.90;;;30.20;68.80;;;;;;5070201;28;20415;-70
2023/07/15 10:56:02;;;;;;;1999.90;999.90;;;30.20;69.40;;;;;;5068312;28;20432;-71
2023/07/15 10:58:30;;;;;;;1999.90;999.90;;;30.20;69.20;;;;;;5069719;28;20416;-71
2023/07/15 11:01:01;;;;;;;1999.90;999.90;;;30.20;70.00;;;;;;5070161;28;20411;-71
2023/07/15 11:03:29;;;;;;;1999.90;999.90;;;29.80;70.50;;;;;;5069771;28;20959;-71
2023/07/15 11:06:01;;;;;;;1999.90;999.90;;;29.80;71.30;;;;;;5069950;28;20820;-70
2023/07/15 11:08:28;;;;;;;1999.90;999.90;;;29.70;72.10;;;;;;5073497;28;20513;-70
2023/07/15 11:10:59;;;;;;;1999.90;999.90;;;29.80;72.80;;;;;;5074117;28;20419;-71
2023/07/15 11:13:28;;;;;;;1999.90;999.90;;;29.70;72.50;;;;;;5073787;28;20419;-70
2023/07/15 11:15:55;;;;;;;1999.90;999.90;;;29.80;73.00;;;;;;5072599;28;20427;-70
2023/07/15 11:18:23;;;;;;;1999.90;999.90;;;29.90;73.60;;;;;;5073829;28;20414;-68
2023/07/15 11:20:53;;;;;;;1999.90;999.90;;;29.70;74.30;;;;;;5074038;28;20407;-72
2023/07/15 11:23:20;;;;;;;1999.90;999.90;;;29.60;74.40;;;;;;5073644;28;20419;-70
2023/07/15 11:25:48;;;;;;;1999.90;999.90;;;29.40;74.80;;;;;;5073078;28;20461;-70
2023/07/15 11:28:15;;;;;;;1999.90;999.90;;;29.50;75.00;;;;;;5073206;28;20419;-72
2023/07/15 11:30:45;;;;;;;1999.90;999.90;;;29.60;75.70;;;;;;5073648;28;20457;-70
2023/07/15 11:33:12;;;;;;;1999.90;999.90;;;29.50;76.30;;;;;;5073765;28;20442;-71
2023/07/15 11:35:41;;;;;;;1999.90;999.90;;;29.60;76.40;;;;;;5072125;28;20428;-72
2023/07/15 11:38:11;;;;;;;1999.90;999.90;;;29.60;77.10;;;;;;5073099;28;20424;-72
2023/07/15 11:40:48;;;;;;;1999.90;999.90;;;29.60;76.90;;;;;;5073601;28;20488;-70
2023/07/15 11:43:16;;;;;;;1999.90;999.90;;;29.70;77.30;;;;;;5073354;28;20911;-71
2023/07/15 11:45:44;;;;;;;1999.90;999.90;;;29.60;77.10;;;;;;5068435;28;20481;-71
2023/07/15 11:48:11;;;;;;;1999.90;999.90;;;29.40;78.10;;;;;;5070908;28;20427;-71
2023/07/15 11:50:38;;;;;;;1999.90;999.90;;;29.40;79.10;;;;;;5073246;28;20424;-71
2023/07/15 11:53:05;;;;;;;1999.90;999.90;;;29.40;79.70;;;;;;5073195;28;20416;-71
2023/07/15 11:55:32;;;;;;;1999.90;999.90;;;29.40;79.30;;;;;;5073150;28;20891;-70
2023/07/15 11:57:58;;;;;;;1999.90;999.90;;;29.50;80.70;;;;;;5063053;28;20801;-71
2023/07/15 12:00:27;;;;;;;1999.90;999.90;;;29.40;80.40;;;;;;5073213;28;20411;-71
2023/07/15 12:02:55;;;;;;;1999.90;999.90;;;29.40;81.60;;;;;;5073021;28;20419;-71